sensor_id;sensor_type;location;lat;lon;timestamp;pressure;altitude;pressure_sealevel;temperature;humidity
35248;BME280;21380;52.194;20.520;2024-02-16T00:01:32;101081.34;;;17.95;61.97
35248;BME280;21380;52.194;20.520;2024-02-16T00:03:57;101087.41;;;17.94;61.93
35248;BME280;21380;52.194;20.520;2024-02-16T00:06:23;101076.06;;;17.94;62.14
35248;BME280;21380;52.194;20.520;2024-02-16T00:08:49;101079.50;;;17.93;62.08
35248;BME280;21380;52.194;20.520;2024-02-16T00:11:15;101080.38;;;17.93;61.94
35248;BME280;21380;52.194;20.520;2024-02-16T00:13:40;101075.13;;;17.92;62.22
35248;BME280;21380;52.194;20.520;2024-02-16T00:16:06;101078.59;;;17.92;62.06
35248;BME280;21380;52.194;20.520;2024-02-16T00:18:33;101074.22;;;17.91;62.06
35248;BME280;21380;52.194;20.520;2024-02-16T00:20:59;101070.75;;;17.91;62.06
35248;BME280;21380;52.194;20.520;2024-02-16T00:23:25;101064.66;;;17.90;61.94
35248;BME280;21380;52.194;20.520;2024-02-16T00:25:51;101063.75;;;17.90;62.08
35248;BME280;21380;52.194;20.520;2024-02-16T00:28:16;101063.75;;;17.90;62.02
35248;BME280;21380;52.194;20.520;2024-02-16T00:30:42;101064.59;;;17.89;62.22
35248;BME280;21380;52.194;20.520;2024-02-16T00:33:08;101064.59;;;17.89;62.42
35248;BME280;21380;52.194;20.520;2024-02-16T00:35:34;101056.78;;;17.89;62.22
35248;BME280;21380;52.194;20.520;2024-02-16T00:38:00;101063.75;;;17.90;62.48
35248;BME280;21380;52.194;20.520;2024-02-16T00:40:26;101068.13;;;17.89;62.27
35248;BME280;21380;52.194;20.520;2024-02-16T00:42:52;101065.50;;;17.89;62.49
35248;BME280;21380;52.194;20.520;2024-02-16T00:45:18;101059.38;;;17.87;62.47
35248;BME280;21380;52.194;20.520;2024-02-16T00:47:44;101058.50;;;17.87;62.25
35248;BME280;21380;52.194;20.520;2024-02-16T00:50:11;101059.34;;;17.86;62.37
35248;BME280;21380;52.194;20.520;2024-02-16T00:52:37;101061.06;;;17.85;62.46
35248;BME280;21380;52.194;20.520;2024-02-16T00:55:04;101058.44;;;17.85;62.21
35248;BME280;21380;52.194;20.520;2024-02-16T00:57:29;101055.81;;;17.83;62.47
35248;BME280;21380;52.194;20.520;2024-02-16T00:59:55;101057.56;;;17.83;62.43
35248;BME280;21380;52.194;20.520;2024-02-16T01:02:21;101056.63;;;17.81;62.29
35248;BME280;21380;52.194;20.520;2024-02-16T01:04:48;101053.19;;;17.82;62.42
35248;BME280;21380;52.194;20.520;2024-02-16T01:07:15;101052.34;;;17.83;62.40
35248;BME280;21380;52.194;20.520;2024-02-16T01:09:41;101046.19;;;17.81;62.43
35248;BME280;21380;52.194;20.520;2024-02-16T01:12:07;101038.34;;;17.81;62.35
35248;BME280;21380;52.194;20.520;2024-02-16T01:14:33;101043.56;;;17.79;62.36
35248;BME280;21380;52.194;20.520;2024-02-16T01:16:59;101051.34;;;17.78;62.17
35248;BME280;21380;52.194;20.520;2024-02-16T01:19:25;101046.13;;;17.78;62.32
35248;BME280;21380;52.194;20.520;2024-02-16T01:21:51;101045.22;;;17.76;62.21
35248;BME280;21380;52.194;20.520;2024-02-16T01:24:19;101033.94;;;17.77;62.28
35248;BME280;21380;52.194;20.520;2024-02-16T01:26:46;101033.91;;;17.75;62.42
35248;BME280;21380;52.194;20.520;2024-02-16T01:29:12;101035.63;;;17.75;62.32
35248;BME280;21380;52.194;20.520;2024-02-16T01:31:38;101037.38;;;17.74;62.58
35248;BME280;21380;52.194;20.520;2024-02-16T01:34:04;101033.84;;;17.74;62.43
35248;BME280;21380;52.194;20.520;2024-02-16T01:36:29;101039.03;;;17.72;62.37
35248;BME280;21380;52.194;20.520;2024-02-16T01:38:55;101046.00;;;17.72;62.46
35248;BME280;21380;52.194;20.520;2024-02-16T01:41:21;101037.28;;;17.71;62.15
35248;BME280;21380;52.194;20.520;2024-02-16T01:43:47;101043.41;;;17.72;62.12
35248;BME280;21380;52.194;20.520;2024-02-16T01:46:13;101036.41;;;17.71;62.14
35248;BME280;21380;52.194;20.520;2024-02-16T01:48:39;101042.47;;;17.70;62.25
35248;BME280;21380;52.194;20.520;2024-02-16T01:51:05;101037.22;;;17.68;62.06
35248;BME280;21380;52.194;20.520;2024-02-16T01:53:32;101045.91;;;17.67;62.03
35248;BME280;21380;52.194;20.520;2024-02-16T01:55:58;101049.34;;;17.66;62.13
35248;BME280;21380;52.194;20.520;2024-02-16T01:58:24;101051.09;;;17.65;62.02
35248;BME280;21380;52.194;20.520;2024-02-16T02:00:49;101049.31;;;17.64;62.14
35248;BME280;21380;52.194;20.520;2024-02-16T02:03:15;101051.91;;;17.63;62.12
35248;BME280;21380;52.194;20.520;2024-02-16T02:05:44;101049.31;;;17.63;61.97
35248;BME280;21380;52.194;20.520;2024-02-16T02:08:11;101049.25;;;17.61;61.99
35248;BME280;21380;52.194;20.520;2024-02-16T02:10:37;101055.34;;;17.60;61.93
35248;BME280;21380;52.194;20.520;2024-02-16T02:13:03;101051.84;;;17.60;61.79
35248;BME280;21380;52.194;20.520;2024-02-16T02:15:29;101059.63;;;17.58;61.93
35248;BME280;21380;52.194;20.520;2024-02-16T02:17:55;101060.50;;;17.59;61.99
35248;BME280;21380;52.194;20.520;2024-02-16T02:20:21;101050.88;;;17.56;61.81
35248;BME280;21380;52.194;20.520;2024-02-16T02:22:47;101065.66;;;17.56;61.86
35248;BME280;21380;52.194;20.520;2024-02-16T02:25:12;101056.06;;;17.55;61.88
35248;BME280;21380;52.194;20.520;2024-02-16T02:27:39;101060.41;;;17.54;61.81
35248;BME280;21380;52.194;20.520;2024-02-16T02:30:04;101057.81;;;17.54;61.88
35248;BME280;21380;52.194;20.520;2024-02-16T02:32:31;101056.91;;;17.54;61.79
35248;BME280;21380;52.194;20.520;2024-02-16T02:34:56;101060.38;;;17.53;61.90
35248;BME280;21380;52.194;20.520;2024-02-16T02:37:22;101040.38;;;17.52;61.77
35248;BME280;21380;52.194;20.520;2024-02-16T02:39:48;101044.69;;;17.51;61.66
35248;BME280;21380;52.194;20.520;2024-02-16T02:42:14;101055.13;;;17.51;61.71
35248;BME280;21380;52.194;20.520;2024-02-16T02:44:40;101036.84;;;17.49;61.61
35248;BME280;21380;52.194;20.520;2024-02-16T02:47:06;101055.94;;;17.48;61.74
35248;BME280;21380;52.194;20.520;2024-02-16T02:49:31;101049.84;;;17.48;61.66
35248;BME280;21380;52.194;20.520;2024-02-16T02:52:00;101054.16;;;17.47;61.80
35248;BME280;21380;52.194;20.520;2024-02-16T02:54:27;101054.16;;;17.47;61.63
35248;BME280;21380;52.194;20.520;2024-02-16T02:56:53;101051.53;;;17.46;61.59
35248;BME280;21380;52.194;20.520;2024-02-16T02:59:18;101044.53;;;17.45;61.84
35248;BME280;21380;52.194;20.520;2024-02-16T03:01:44;101049.75;;;17.45;61.64
35248;BME280;21380;52.194;20.520;2024-02-16T03:04:11;101046.25;;;17.43;61.71
35248;BME280;21380;52.194;20.520;2024-02-16T03:06:37;101052.34;;;17.43;61.53
35248;BME280;21380;52.194;20.520;2024-02-16T03:09:03;101043.59;;;17.41;61.52
35248;BME280;21380;52.194;20.520;2024-02-16T03:11:29;101041.00;;;17.41;61.55
35248;BME280;21380;52.194;20.520;2024-02-16T03:13:54;101046.19;;;17.40;61.45
35248;BME280;21380;52.194;20.520;2024-02-16T03:16:20;101043.56;;;17.40;61.61
35248;BME280;21380;52.194;20.520;2024-02-16T03:18:46;101044.41;;;17.39;61.56
35248;BME280;21380;52.194;20.520;2024-02-16T03:21:15;101047.00;;;17.37;61.39
35248;BME280;21380;52.194;20.520;2024-02-16T03:23:43;101047.84;;;17.36;61.44
35248;BME280;21380;52.194;20.520;2024-02-16T03:26:16;101050.44;;;17.36;61.26
35248;BME280;21380;52.194;20.520;2024-02-16T03:28:45;101049.56;;;17.36;61.40
35248;BME280;21380;52.194;20.520;2024-02-16T03:31:19;101041.72;;;17.34;61.32
35248;BME280;21380;52.194;20.520;2024-02-16T03:33:45;101044.28;;;17.32;61.29
35248;BME280;21380;52.194;20.520;2024-02-16T03:36:12;101040.78;;;17.32;61.45
35248;BME280;21380;52.194;20.520;2024-02-16T03:38:41;101033.81;;;17.31;61.40
35248;BME280;21380;52.194;20.520;2024-02-16T03:41:07;101039.88;;;17.30;61.22
35248;BME280;21380;52.194;20.520;2024-02-16T03:43:32;101039.00;;;17.29;61.26
35248;BME280;21380;52.194;20.520;2024-02-16T03:45:58;101046.81;;;17.29;61.35
35248;BME280;21380;52.194;20.520;2024-02-16T03:48:24;101041.59;;;17.28;61.13
35248;BME280;21380;52.194;20.520;2024-02-16T03:50:50;101033.69;;;17.26;61.07
35248;BME280;21380;52.194;20.520;2024-02-16T03:53:15;101049.34;;;17.26;61.15
35248;BME280;21380;52.194;20.520;2024-02-16T03:55:41;101045.00;;;17.25;61.00
35248;BME280;21380;52.194;20.520;2024-02-16T03:58:07;101047.56;;;17.24;61.01
35248;BME280;21380;52.194;20.520;2024-02-16T04:00:33;101044.06;;;17.23;61.18
35248;BME280;21380;52.194;20.520;2024-02-16T04:02:58;101052.72;;;17.22;61.09
35248;BME280;21380;52.194;20.520;2024-02-16T04:05:25;101046.66;;;17.22;61.23
35248;BME280;21380;52.194;20.520;2024-02-16T04:07:56;101050.09;;;17.21;61.05
35248;BME280;21380;52.194;20.520;2024-02-16T04:10:22;101048.34;;;17.20;61.09
35248;BME280;21380;52.194;20.520;2024-02-16T04:12:47;101057.91;;;17.21;60.91
35248;BME280;21380;52.194;20.520;2024-02-16T04:15:13;101057.91;;;17.19;61.18
35248;BME280;21380;52.194;20.520;2024-02-16T04:17:39;101055.22;;;17.17;61.17
35248;BME280;21380;52.194;20.520;2024-02-16T04:20:05;101050.00;;;17.17;61.08
35248;BME280;21380;52.194;20.520;2024-02-16T04:22:32;101044.78;;;17.16;60.95
35248;BME280;21380;52.194;20.520;2024-02-16T04:25:03;101051.75;;;17.17;61.03
35248;BME280;21380;52.194;20.520;2024-02-16T04:27:29;101047.38;;;17.16;61.00
35248;BME280;21380;52.194;20.520;2024-02-16T04:29:56;101043.91;;;17.15;60.88
35248;BME280;21380;52.194;20.520;2024-02-16T04:32:22;101049.94;;;17.13;60.77
35248;BME280;21380;52.194;20.520;2024-02-16T04:34:51;101054.31;;;17.14;60.92
35248;BME280;21380;52.194;20.520;2024-02-16T04:37:27;101055.13;;;17.13;60.87
35248;BME280;21380;52.194;20.520;2024-02-16T04:39:53;101049.88;;;17.11;61.00
35248;BME280;21380;52.194;20.520;2024-02-16T04:42:19;101055.06;;;17.11;60.98
35248;BME280;21380;52.194;20.520;2024-02-16T04:44:45;101049.00;;;17.11;60.77
35248;BME280;21380;52.194;20.520;2024-02-16T04:47:10;101046.38;;;17.09;60.70
35248;BME280;21380;52.194;20.520;2024-02-16T04:49:37;101045.47;;;17.09;60.79
35248;BME280;21380;52.194;20.520;2024-02-16T04:52:03;101046.34;;;17.08;60.79
35248;BME280;21380;52.194;20.520;2024-02-16T04:54:29;101046.34;;;17.08;60.88
35248;BME280;21380;52.194;20.520;2024-02-16T04:56:55;101046.28;;;17.06;60.78
35248;BME280;21380;52.194;20.520;2024-02-16T04:59:21;101048.00;;;17.06;60.69
35248;BME280;21380;52.194;20.520;2024-02-16T05:01:46;101048.84;;;17.05;60.83
35248;BME280;21380;52.194;20.520;2024-02-16T05:04:13;101043.63;;;17.05;60.55
35248;BME280;21380;52.194;20.520;2024-02-16T05:06:39;101038.44;;;17.05;60.77
35248;BME280;21380;52.194;20.520;2024-02-16T05:09:06;101045.41;;;17.06;60.71
35248;BME280;21380;52.194;20.520;2024-02-16T05:11:32;101038.44;;;17.05;60.71
35248;BME280;21380;52.194;20.520;2024-02-16T05:13:58;101041.88;;;17.04;60.63
35248;BME280;21380;52.194;20.520;2024-02-16T05:16:24;101040.09;;;17.02;60.55
35248;BME280;21380;52.194;20.520;2024-02-16T05:18:50;101037.50;;;17.02;60.53
35248;BME280;21380;52.194;20.520;2024-02-16T05:21:16;101034.03;;;17.02;60.62
35248;BME280;21380;52.194;20.520;2024-02-16T05:23:41;101038.38;;;17.01;60.56
35248;BME280;21380;52.194;20.520;2024-02-16T05:26:07;101032.25;;;17.01;60.56
35248;BME280;21380;52.194;20.520;2024-02-16T05:28:33;101041.81;;;17.00;60.40
35248;BME280;21380;52.194;20.520;2024-02-16T05:31:04;101032.22;;;16.99;60.42
35248;BME280;21380;52.194;20.520;2024-02-16T05:33:38;101029.63;;;16.99;60.52
35248;BME280;21380;52.194;20.520;2024-02-16T05:36:04;101027.00;;;16.99;60.38
35248;BME280;21380;52.194;20.520;2024-02-16T05:38:31;101034.81;;;16.98;60.51
35248;BME280;21380;52.194;20.520;2024-02-16T05:41:09;101036.56;;;16.99;60.56
35248;BME280;21380;52.194;20.520;2024-02-16T05:43:35;101044.31;;;16.97;60.39
35248;BME280;21380;52.194;20.520;2024-02-16T05:46:00;101047.84;;;16.98;60.50
35248;BME280;21380;52.194;20.520;2024-02-16T05:48:26;101046.94;;;16.97;60.33
35248;BME280;21380;52.194;20.520;2024-02-16T05:51:00;101048.69;;;16.98;60.35
35248;BME280;21380;52.194;20.520;2024-02-16T05:53:27;101047.84;;;16.98;60.03
35248;BME280;21380;52.194;20.520;2024-02-16T05:55:55;101048.66;;;16.97;59.93
35248;BME280;21380;52.194;20.520;2024-02-16T05:58:21;101047.81;;;16.96;60.09
35248;BME280;21380;52.194;20.520;2024-02-16T06:00:48;101049.47;;;16.94;60.08
35248;BME280;21380;52.194;20.520;2024-02-16T06:03:14;101045.13;;;16.95;60.07
35248;BME280;21380;52.194;20.520;2024-02-16T06:05:40;101058.13;;;16.93;59.96
35248;BME280;21380;52.194;20.520;2024-02-16T06:08:06;101062.50;;;16.94;60.04
35248;BME280;21380;52.194;20.520;2024-02-16T06:10:33;101065.97;;;16.93;59.77
35248;BME280;21380;52.194;20.520;2024-02-16T06:12:59;101060.72;;;16.92;59.75
35248;BME280;21380;52.194;20.520;2024-02-16T06:15:24;101055.50;;;16.92;59.88
35248;BME280;21380;52.194;20.520;2024-02-16T06:17:51;101059.81;;;16.91;59.76
35248;BME280;21380;52.194;20.520;2024-02-16T06:20:16;101061.53;;;16.91;60.00
35248;BME280;21380;52.194;20.520;2024-02-16T06:22:42;101065.94;;;16.92;59.85
35248;BME280;21380;52.194;20.520;2024-02-16T06:25:09;101067.63;;;16.91;59.95
35248;BME280;21380;52.194;20.520;2024-02-16T06:27:35;101075.44;;;16.91;59.75
35248;BME280;21380;52.194;20.520;2024-02-16T06:30:02;101072.84;;;16.91;59.80
35248;BME280;21380;52.194;20.520;2024-02-16T06:32:29;101077.22;;;16.92;60.09
35248;BME280;21380;52.194;20.520;2024-02-16T06:34:56;101083.63;;;14.43;55.23
35248;BME280;21380;52.194;20.520;2024-02-16T06:37:22;101097.81;;;12.34;58.59
35248;BME280;21380;52.194;20.520;2024-02-16T06:39:48;101087.56;;;13.85;58.30
35248;BME280;21380;52.194;20.520;2024-02-16T06:42:14;101082.28;;;14.55;57.01
35248;BME280;21380;52.194;20.520;2024-02-16T06:44:40;101085.56;;;15.01;57.89
35248;BME280;21380;52.194;20.520;2024-02-16T06:47:06;101084.09;;;15.36;57.83
35248;BME280;21380;52.194;20.520;2024-02-16T06:49:32;101083.09;;;15.60;57.34
35248;BME280;21380;52.194;20.520;2024-02-16T06:51:58;101084.50;;;15.78;56.79
35248;BME280;21380;52.194;20.520;2024-02-16T06:54:23;101084.00;;;15.89;56.52
35248;BME280;21380;52.194;20.520;2024-02-16T06:56:51;101089.41;;;15.97;56.43
35248;BME280;21380;52.194;20.520;2024-02-16T06:59:17;101088.72;;;16.03;56.40
35248;BME280;21380;52.194;20.520;2024-02-16T07:01:43;101086.25;;;16.08;56.44
35248;BME280;21380;52.194;20.520;2024-02-16T07:04:09;101082.94;;;16.13;56.55
35248;BME280;21380;52.194;20.520;2024-02-16T07:06:35;101085.31;;;13.28;55.69
35248;BME280;21380;52.194;20.520;2024-02-16T07:09:01;101085.31;;;13.72;57.01
35248;BME280;21380;52.194;20.520;2024-02-16T07:11:28;101078.06;;;14.34;57.43
35248;BME280;21380;52.194;20.520;2024-02-16T07:13:53;101072.59;;;14.75;56.46
35248;BME280;21380;52.194;20.520;2024-02-16T07:16:19;101080.50;;;15.05;56.65
35248;BME280;21380;52.194;20.520;2024-02-16T07:18:45;101079.50;;;15.28;56.90
35248;BME280;21380;52.194;20.520;2024-02-16T07:21:11;101072.31;;;15.48;56.29
35248;BME280;21380;52.194;20.520;2024-02-16T07:23:37;101077.94;;;15.62;56.18
35248;BME280;21380;52.194;20.520;2024-02-16T07:26:04;101079.09;;;15.71;55.86
35248;BME280;21380;52.194;20.520;2024-02-16T07:28:29;101081.97;;;15.81;55.88
35248;BME280;21380;52.194;20.520;2024-02-16T07:30:57;101080.47;;;15.87;55.92
35248;BME280;21380;52.194;20.520;2024-02-16T07:33:23;101083.25;;;15.94;55.99
35248;BME280;21380;52.194;20.520;2024-02-16T07:35:50;101088.56;;;15.98;55.89
35248;BME280;21380;52.194;20.520;2024-02-16T07:38:17;101086.97;;;16.03;55.84
35248;BME280;21380;52.194;20.520;2024-02-16T07:40:43;101091.47;;;16.08;55.97
35248;BME280;21380;52.194;20.520;2024-02-16T07:43:11;101082.03;;;16.11;56.01
35248;BME280;21380;52.194;20.520;2024-02-16T07:45:37;101089.75;;;14.97;55.16
35248;BME280;21380;52.194;20.520;2024-02-16T07:48:02;101093.00;;;12.63;58.16
35248;BME280;21380;52.194;20.520;2024-02-16T07:50:31;101090.88;;;13.58;58.71
35248;BME280;21380;52.194;20.520;2024-02-16T07:52:56;101081.13;;;14.22;58.36
35248;BME280;21380;52.194;20.520;2024-02-16T07:55:23;101092.59;;;14.78;58.00
35248;BME280;21380;52.194;20.520;2024-02-16T07:57:50;101082.72;;;15.20;57.13
35248;BME280;21380;52.194;20.520;2024-02-16T08:00:16;101081.03;;;15.50;56.84
35248;BME280;21380;52.194;20.520;2024-02-16T08:02:43;101083.47;;;15.72;56.47
35248;BME280;21380;52.194;20.520;2024-02-16T08:05:12;101078.81;;;15.91;56.17
35248;BME280;21380;52.194;20.520;2024-02-16T08:07:41;101081.88;;;16.07;56.09
35248;BME280;21380;52.194;20.520;2024-02-16T08:10:08;101084.03;;;16.21;55.80
35248;BME280;21380;52.194;20.520;2024-02-16T08:12:34;101083.47;;;16.33;55.83
35248;BME280;21380;52.194;20.520;2024-02-16T08:15:02;101087.22;;;16.43;55.65
35248;BME280;21380;52.194;20.520;2024-02-16T08:17:29;101085.72;;;16.51;55.49
35248;BME280;21380;52.194;20.520;2024-02-16T08:19:55;101096.34;;;16.59;55.48
35248;BME280;21380;52.194;20.520;2024-02-16T08:22:21;101087.84;;;16.66;55.41
35248;BME280;21380;52.194;20.520;2024-02-16T08:24:47;101084.53;;;16.74;55.43
35248;BME280;21380;52.194;20.520;2024-02-16T08:27:15;101080.38;;;16.80;55.53
35248;BME280;21380;52.194;20.520;2024-02-16T08:29:41;101089.22;;;16.87;55.57
35248;BME280;21380;52.194;20.520;2024-02-16T08:32:07;101075.50;;;16.93;55.49
35248;BME280;21380;52.194;20.520;2024-02-16T08:34:34;101084.31;;;16.98;55.25
35248;BME280;21380;52.194;20.520;2024-02-16T08:37:02;101074.06;;;17.04;55.23
35248;BME280;21380;52.194;20.520;2024-02-16T08:39:29;101071.53;;;17.09;55.38
35248;BME280;21380;52.194;20.520;2024-02-16T08:41:58;101062.06;;;17.12;55.29
35248;BME280;21380;52.194;20.520;2024-02-16T08:44:27;101069.13;;;17.16;55.22
35248;BME280;21380;52.194;20.520;2024-02-16T08:46:53;101067.44;;;17.20;55.44
35248;BME280;21380;52.194;20.520;2024-02-16T08:49:20;101073.63;;;17.24;55.48
35248;BME280;21380;52.194;20.520;2024-02-16T08:51:47;101067.59;;;17.26;55.23
35248;BME280;21380;52.194;20.520;2024-02-16T08:54:13;101066.84;;;17.30;55.28
35248;BME280;21380;52.194;20.520;2024-02-16T08:56:38;101064.25;;;17.32;55.26
35248;BME280;21380;52.194;20.520;2024-02-16T08:59:05;101059.09;;;17.35;55.42
35248;BME280;21380;52.194;20.520;2024-02-16T09:01:31;101064.38;;;17.37;55.59
35248;BME280;21380;52.194;20.520;2024-02-16T09:03:57;101064.44;;;17.40;55.44
35248;BME280;21380;52.194;20.520;2024-02-16T09:06:23;101054.94;;;17.42;55.34
35248;BME280;21380;52.194;20.520;2024-02-16T09:08:49;101052.38;;;17.45;55.45
35248;BME280;21380;52.194;20.520;2024-02-16T09:11:14;101052.41;;;17.46;55.51
35248;BME280;21380;52.194;20.520;2024-02-16T09:13:40;101053.34;;;17.50;55.64
35248;BME280;21380;52.194;20.520;2024-02-16T09:16:06;101050.81;;;17.52;55.69
35248;BME280;21380;52.194;20.520;2024-02-16T09:18:33;101049.06;;;17.52;55.63
35248;BME280;21380;52.194;20.520;2024-02-16T09:20:59;101049.97;;;17.54;55.65
35248;BME280;21380;52.194;20.520;2024-02-16T09:23:26;101051.72;;;17.55;55.66
35248;BME280;21380;52.194;20.520;2024-02-16T09:25:51;101052.66;;;17.57;55.66
35248;BME280;21380;52.194;20.520;2024-02-16T09:28:17;101049.22;;;17.60;55.66
35248;BME280;21380;52.194;20.520;2024-02-16T09:30:46;101050.13;;;17.60;55.86
35248;BME280;21380;52.194;20.520;2024-02-16T09:33:12;101049.25;;;17.61;55.93
35248;BME280;21380;52.194;20.520;2024-02-16T09:35:39;101056.28;;;17.64;56.10
35248;BME280;21380;52.194;20.520;2024-02-16T09:38:05;101053.72;;;17.65;55.95
35248;BME280;21380;52.194;20.520;2024-02-16T09:40:31;101048.50;;;17.65;56.04
35248;BME280;21380;52.194;20.520;2024-02-16T09:42:57;101049.34;;;17.66;55.98
35248;BME280;21380;52.194;20.520;2024-02-16T09:45:23;101048.50;;;17.67;55.91
35248;BME280;21380;52.194;20.520;2024-02-16T09:47:50;101051.13;;;17.67;56.18
35248;BME280;21380;52.194;20.520;2024-02-16T09:50:17;101052.88;;;17.68;56.16
35248;BME280;21380;52.194;20.520;2024-02-16T09:52:46;101058.13;;;17.70;56.17
35248;BME280;21380;52.194;20.520;2024-02-16T09:55:13;101059.00;;;17.70;56.18
35248;BME280;21380;52.194;20.520;2024-02-16T09:57:39;101065.97;;;17.71;56.26
35248;BME280;21380;52.194;20.520;2024-02-16T10:00:05;101058.16;;;17.71;56.29
35248;BME280;21380;52.194;20.520;2024-02-16T10:02:44;101056.44;;;17.72;56.46
35248;BME280;21380;52.194;20.520;2024-02-16T10:05:13;101044.28;;;17.72;56.52
35248;BME280;21380;52.194;20.520;2024-02-16T10:07:39;101040.78;;;17.72;56.56
35248;BME280;21380;52.194;20.520;2024-02-16T10:10:05;101043.44;;;17.73;56.75
35248;BME280;21380;52.194;20.520;2024-02-16T10:12:32;101039.06;;;17.74;56.52
35248;BME280;21380;52.194;20.520;2024-02-16T10:14:57;101036.47;;;17.74;56.63
35248;BME280;21380;52.194;20.520;2024-02-16T10:17:25;101040.84;;;17.75;56.71
35248;BME280;21380;52.194;20.520;2024-02-16T10:19:57;101027.78;;;17.75;56.90
35248;BME280;21380;52.194;20.520;2024-02-16T10:22:23;101033.00;;;17.75;56.59
35248;BME280;21380;52.194;20.520;2024-02-16T10:24:49;101030.41;;;17.75;56.77
35248;BME280;21380;52.194;20.520;2024-02-16T10:27:17;101021.72;;;17.74;56.78
35248;BME280;21380;52.194;20.520;2024-02-16T10:29:49;101017.34;;;17.75;56.76
35248;BME280;21380;52.194;20.520;2024-02-16T10:32:19;101026.09;;;17.77;56.80
35248;BME280;21380;52.194;20.520;2024-02-16T10:34:45;101016.50;;;17.76;57.14
35248;BME280;21380;52.194;20.520;2024-02-16T10:37:11;101010.44;;;17.77;57.04
35248;BME280;21380;52.194;20.520;2024-02-16T10:39:37;101007.00;;;17.78;57.06
35248;BME280;21380;52.194;20.520;2024-02-16T10:42:06;101008.72;;;17.77;56.87
35248;BME280;21380;52.194;20.520;2024-02-16T10:44:32;101007.00;;;17.78;56.97
35248;BME280;21380;52.194;20.520;2024-02-16T10:47:01;101005.25;;;17.78;56.96
35248;BME280;21380;52.194;20.520;2024-02-16T10:49:27;100994.81;;;17.78;57.25
35248;BME280;21380;52.194;20.520;2024-02-16T10:51:54;100991.38;;;17.79;57.21
35248;BME280;21380;52.194;20.520;2024-02-16T10:54:25;100994.84;;;17.80;57.28
35248;BME280;21380;52.194;20.520;2024-02-16T10:56:53;100987.00;;;17.80;57.13
35248;BME280;21380;52.194;20.520;2024-02-16T10:59:19;100987.00;;;17.80;57.20
35248;BME280;21380;52.194;20.520;2024-02-16T11:01:45;100971.41;;;17.81;57.41
35248;BME280;21380;52.194;20.520;2024-02-16T11:04:11;100971.34;;;17.80;57.47
35248;BME280;21380;52.194;20.520;2024-02-16T11:07:11;100973.97;;;17.80;57.58
35248;BME280;21380;52.194;20.520;2024-02-16T11:09:30;100964.44;;;17.80;57.53
35248;BME280;21380;52.194;20.520;2024-02-16T11:12:00;100967.88;;;17.79;57.66
35248;BME280;21380;52.194;20.520;2024-02-16T11:17:15;100953.97;;;17.80;57.74
35248;BME280;21380;52.194;20.520;2024-02-16T11:19:43;100952.25;;;17.81;57.70
35248;BME280;21380;52.194;20.520;2024-02-16T11:22:10;100947.03;;;17.81;57.51
35248;BME280;21380;52.194;20.520;2024-02-16T11:24:45;100934.81;;;17.80;57.62
35248;BME280;21380;52.194;20.520;2024-02-16T11:27:11;100938.31;;;17.80;57.76
35248;BME280;21380;52.194;20.520;2024-02-16T11:29:38;100927.00;;;17.80;57.70
35248;BME280;21380;52.194;20.520;2024-02-16T11:32:05;100927.00;;;17.80;57.89
35248;BME280;21380;52.194;20.520;2024-02-16T11:34:31;100916.56;;;17.80;57.78
35248;BME280;21380;52.194;20.520;2024-02-16T11:36:58;100920.06;;;17.80;57.92
35248;BME280;21380;52.194;20.520;2024-02-16T11:39:25;100913.09;;;17.81;57.87
35248;BME280;21380;52.194;20.520;2024-02-16T11:42:01;100908.72;;;17.80;58.00
35248;BME280;21380;52.194;20.520;2024-02-16T11:44:28;100896.56;;;17.80;57.91
35248;BME280;21380;52.194;20.520;2024-02-16T11:46:55;100900.03;;;17.79;58.00
35248;BME280;21380;52.194;20.520;2024-02-16T11:49:21;100902.66;;;17.81;58.18
35248;BME280;21380;52.194;20.520;2024-02-16T11:51:47;100897.44;;;17.81;58.14
35248;BME280;21380;52.194;20.520;2024-02-16T11:54:13;100892.22;;;17.81;58.30
35248;BME280;21380;52.194;20.520;2024-02-16T11:56:45;100893.97;;;17.82;58.30
35248;BME280;21380;52.194;20.520;2024-02-16T11:59:14;100896.59;;;17.82;58.22
35248;BME280;21380;52.194;20.520;2024-02-16T12:01:50;100886.16;;;17.82;58.39
35248;BME280;21380;52.194;20.520;2024-02-16T12:04:24;100889.63;;;17.82;58.52
35248;BME280;21380;52.194;20.520;2024-02-16T12:06:52;100885.28;;;17.81;58.37
35248;BME280;21380;52.194;20.520;2024-02-16T12:09:18;100882.69;;;17.81;58.27
35248;BME280;21380;52.194;20.520;2024-02-16T12:11:44;100881.81;;;17.82;58.45
35248;BME280;21380;52.194;20.520;2024-02-16T12:14:10;100876.56;;;17.81;58.39
35248;BME280;21380;52.194;20.520;2024-02-16T12:16:39;100880.94;;;17.82;58.34
35248;BME280;21380;52.194;20.520;2024-02-16T12:19:05;100878.31;;;17.82;58.54
35248;BME280;21380;52.194;20.520;2024-02-16T12:21:31;100871.34;;;17.81;58.48
35248;BME280;21380;52.194;20.520;2024-02-16T12:23:57;100874.84;;;17.81;58.66
35248;BME280;21380;52.194;20.520;2024-02-16T12:26:23;100879.16;;;17.81;58.58
35248;BME280;21380;52.194;20.520;2024-02-16T12:28:50;100876.56;;;17.81;58.82
35248;BME280;21380;52.194;20.520;2024-02-16T12:31:19;100871.34;;;17.81;58.67
35248;BME280;21380;52.194;20.520;2024-02-16T12:33:45;100877.47;;;17.81;58.69
35248;BME280;21380;52.194;20.520;2024-02-16T12:36:11;100874.84;;;17.81;58.74
35248;BME280;21380;52.194;20.520;2024-02-16T12:38:37;100864.38;;;17.80;58.79
35248;BME280;21380;52.194;20.520;2024-02-16T12:41:02;100858.28;;;17.81;58.79